Time;durP1;ratioP1;P1;durP2;ratioP2;P2;SDS_P1;SDS_P2;PMS_P1;PMS_P2;Temp;Humidity;BMP_temperature;BMP_pressure;BME280_temperature;BME280_humidity;BME280_pressure;Samples;Min_cycle;Max_cycle;Signal;HPM_P1;HPM_P2
2023/02/01 00:01:16;;;;;;;11.57;3.00;;;4.70;99.90;;;;;;5107662;28;20212;-71
2023/02/01 00:03:43;;;;;;;9.73;3.00;;;4.70;99.90;;;;;;5107125;28;20213;-71
2023/02/01 00:06:10;;;;;;;8.43;2.80;;;4.80;99.90;;;;;;5107337;28;20304;-71
2023/02/01 00:08:37;;;;;;;15.30;3.57;;;4.80;99.90;;;;;;5127164;27;20250;-71
2023/02/01 00:11:05;;;;;;;9.83;2.90;;;4.90;99.90;;;;;;5128575;28;20292;-71
2023/02/01 00:13:37;;;;;;;12.50;3.07;;;4.90;99.90;;;;;;5113485;28;20289;-71
2023/02/01 00:16:05;;;;;;;11.83;2.63;;;4.90;99.90;;;;;;5112019;27;20230;-70
2023/02/01 00:18:32;;;;;;;8.43;2.90;;;4.90;99.90;;;;;;5142460;27;20237;-70
2023/02/01 00:20:59;;;;;;;8.23;2.83;;;4.90;99.90;;;;;;5127659;28;20664;-70
2023/02/01 00:23:26;;;;;;;15.13;3.03;;;4.90;99.90;;;;;;5110743;28;20294;-70
2023/02/01 00:25:53;;;;;;;9.10;2.40;;;4.90;99.90;;;;;;5107585;28;20222;-71
2023/02/01 00:28:20;;;;;;;9.10;2.63;;;4.90;99.90;;;;;;5107687;28;20206;-71
2023/02/01 00:30:57;;;;;;;9.43;2.87;;;4.90;99.90;;;;;;5112613;27;20723;-72
2023/02/01 00:33:24;;;;;;;10.07;2.80;;;4.90;99.90;;;;;;5108243;27;20209;-72
2023/02/01 00:35:51;;;;;;;8.20;2.60;;;4.90;99.90;;;;;;5107158;28;20277;-71
2023/02/01 00:38:18;;;;;;;7.37;2.40;;;4.80;99.90;;;;;;5107318;28;20642;-71
2023/02/01 00:40:45;;;;;;;6.93;2.20;;;4.80;99.90;;;;;;5115391;28;20292;-71
2023/02/01 00:43:12;;;;;;;9.80;2.63;;;4.70;99.90;;;;;;5128369;28;20241;-71
2023/02/01 00:45:39;;;;;;;7.40;2.47;;;4.70;99.90;;;;;;5127766;28;20208;-71
2023/02/01 00:48:07;;;;;;;10.77;2.57;;;4.60;99.90;;;;;;5143795;27;20229;-71
2023/02/01 00:50:34;;;;;;;8.30;2.50;;;4.60;99.90;;;;;;5127428;28;20212;-71
2023/02/01 00:53:01;;;;;;;9.63;2.47;;;4.50;99.90;;;;;;5128029;28;20227;-71
2023/02/01 00:55:28;;;;;;;5.70;2.20;;;4.50;99.90;;;;;;5128505;27;20324;-71
2023/02/01 00:57:55;;;;;;;9.17;2.30;;;4.40;99.90;;;;;;5131211;27;20238;-71
2023/02/01 01:00:22;;;;;;;7.47;2.50;;;4.40;99.90;;;;;;5130532;27;20320;-71
2023/02/01 01:02:48;;;;;;;10.10;2.20;;;4.30;99.90;;;;;;5132983;27;20206;-71
2023/02/01 01:05:17;;;;;;;6.13;2.30;;;4.30;99.90;;;;;;5151957;27;20300;-72
2023/02/01 01:07:44;;;;;;;7.63;1.87;;;4.30;99.90;;;;;;5152094;27;20535;-71
2023/02/01 01:10:12;;;;;;;8.50;2.10;;;4.30;99.90;;;;;;5152082;27;20292;-71
2023/02/01 01:12:39;;;;;;;10.03;2.33;;;4.20;99.90;;;;;;5112172;27;20326;-72
2023/02/01 01:15:07;;;;;;;6.13;2.13;;;4.20;99.90;;;;;;5128147;27;20312;-71
2023/02/01 01:17:34;;;;;;;8.83;2.43;;;4.20;99.90;;;;;;5146175;27;20292;-72
2023/02/01 01:20:01;;;;;;;13.00;2.50;;;4.20;99.90;;;;;;5120088;27;20665;-71
2023/02/01 01:22:29;;;;;;;10.00;2.47;;;4.20;99.90;;;;;;5120004;27;20301;-71
2023/02/01 01:24:56;;;;;;;8.87;2.27;;;4.20;99.90;;;;;;5131237;27;20316;-71
2023/02/01 01:27:24;;;;;;;8.07;2.53;;;4.20;99.90;;;;;;5128752;27;20297;-71
2023/02/01 01:29:51;;;;;;;9.30;2.47;;;4.30;99.90;;;;;;5119327;27;20205;-71
2023/02/01 01:32:18;;;;;;;5.67;2.80;;;4.20;99.90;;;;;;5131010;27;20218;-72
2023/02/01 01:34:45;;;;;;;10.63;2.63;;;4.30;99.90;;;;;;5130616;27;20300;-71
2023/02/01 01:37:12;;;;;;;10.50;2.80;;;4.30;99.90;;;;;;5130455;27;20236;-71
2023/02/01 01:39:40;;;;;;;10.33;2.87;;;4.40;99.90;;;;;;5130659;27;20244;-71
2023/02/01 01:42:12;;;;;;;9.90;2.20;;;4.40;99.90;;;;;;5130490;27;20679;-71
2023/02/01 01:45:04;;;;;;;8.27;2.77;;;4.40;99.90;;;;;;5130821;27;20212;-71
2023/02/01 01:47:36;;;;;;;8.80;2.37;;;4.40;99.90;;;;;;5115356;27;20661;-71
2023/02/01 01:50:05;;;;;;;7.50;2.60;;;4.40;99.90;;;;;;5110173;28;20221;-71
2023/02/01 01:52:32;;;;;;;12.73;2.80;;;4.40;99.90;;;;;;5109735;28;20293;-71
2023/02/01 01:55:01;;;;;;;13.20;2.47;;;4.50;99.90;;;;;;5110143;27;20321;-72
2023/02/01 01:57:32;;;;;;;11.37;3.03;;;4.40;99.90;;;;;;5126760;27;20352;-72
2023/02/01 02:00:05;;;;;;;8.23;2.33;;;4.50;99.90;;;;;;5130258;27;20725;-73
2023/02/01 02:02:32;;;;;;;7.10;2.30;;;4.50;99.90;;;;;;5130160;27;20197;-73
2023/02/01 02:04:59;;;;;;;5.57;2.10;;;4.50;99.90;;;;;;5130527;27;20300;-73
2023/02/01 02:07:31;;;;;;;11.33;2.90;;;4.60;99.90;;;;;;5129373;27;20286;-73
2023/02/01 02:09:58;;;;;;;11.50;2.87;;;4.50;99.90;;;;;;5130826;27;20221;-72
2023/02/01 02:12:26;;;;;;;12.73;2.80;;;4.50;99.90;;;;;;5130311;27;20205;-73
2023/02/01 02:14:53;;;;;;;10.17;2.57;;;4.50;99.90;;;;;;5121513;27;20290;-73
2023/02/01 02:17:33;;;;;;;10.00;2.73;;;4.50;99.90;;;;;;5143378;27;20261;-73
2023/02/01 02:20:42;;;;;;;11.20;2.40;;;4.50;99.90;;;;;;5150820;27;20674;-73
2023/02/01 02:23:40;;;;;;;10.07;2.63;;;4.50;99.90;;;;;;5140571;27;20265;-73
2023/02/01 02:26:24;;;;;;;10.47;2.83;;;4.50;99.90;;;;;;5118507;27;20312;-73
2023/02/01 02:29:19;;;;;;;9.33;2.10;;;4.50;99.90;;;;;;5110024;27;20202;-73
2023/02/01 02:32:27;;;;;;;10.50;2.90;;;4.50;99.90;;;;;;5109181;28;20205;-73
2023/02/01 02:34:58;;;;;;;7.90;2.23;;;4.50;99.90;;;;;;5091022;28;20229;-73
2023/02/01 02:37:37;;;;;;;9.00;2.67;;;4.50;99.90;;;;;;5109238;28;20198;-72
2023/02/01 02:40:12;;;;;;;9.27;2.57;;;4.50;99.90;;;;;;5109618;28;20296;-73
2023/02/01 02:48:23;;;;;;;7.47;2.70;;;4.50;99.90;;;;;;5109306;28;20206;-73
2023/02/01 03:05:02;;;;;;;14.27;4.70;;;4.50;99.90;;;;;;5129367;27;20188;-70
2023/02/01 03:07:58;;;;;;;10.63;3.17;;;4.50;99.90;;;;;;5127529;27;20201;-70
2023/02/01 03:10:31;;;;;;;9.27;3.23;;;4.60;99.90;;;;;;5113790;27;20224;-71
2023/02/01 03:13:03;;;;;;;11.43;3.50;;;4.50;99.90;;;;;;5108539;28;20661;-72
2023/02/01 03:15:36;;;;;;;13.73;2.77;;;4.60;99.90;;;;;;5108442;28;20239;-71
2023/02/01 03:18:10;;;;;;;8.17;2.83;;;4.60;99.90;;;;;;5144863;27;20236;-73
2023/02/01 03:20:40;;;;;;;13.23;3.30;;;4.60;99.90;;;;;;5121061;27;20286;-72
2023/02/01 03:23:10;;;;;;;10.30;3.20;;;4.60;99.90;;;;;;5128075;27;20270;-70
2023/02/01 03:25:37;;;;;;;8.70;2.50;;;4.60;99.90;;;;;;5113840;27;20261;-72
2023/02/01 03:28:07;;;;;;;9.87;3.47;;;4.60;99.90;;;;;;5123021;27;20749;-70
2023/02/01 03:30:37;;;;;;;12.10;2.47;;;4.60;99.90;;;;;;5126035;27;20291;-70
2023/02/01 03:33:13;;;;;;;9.17;3.30;;;4.60;99.90;;;;;;5126682;27;20197;-70
2023/02/01 03:35:44;;;;;;;11.70;2.60;;;4.60;99.90;;;;;;5125907;27;20585;-70
2023/02/01 03:38:19;;;;;;;12.93;3.30;;;4.60;99.90;;;;;;5126965;27;20230;-70
2023/02/01 03:40:52;;;;;;;10.10;2.67;;;4.60;99.90;;;;;;5126146;27;20193;-70
2023/02/01 03:43:21;;;;;;;12.80;2.73;;;4.60;99.90;;;;;;5126546;27;20839;-70
2023/02/01 03:45:53;;;;;;;9.60;2.50;;;4.60;99.90;;;;;;5126767;27;20212;-70
2023/02/01 03:48:24;;;;;;;9.63;2.73;;;4.70;99.90;;;;;;5105504;28;20194;-70
2023/02/01 03:50:56;;;;;;;12.43;3.90;;;4.70;99.90;;;;;;5105419;28;20206;-70
2023/02/01 03:53:26;;;;;;;12.77;3.73;;;4.60;99.90;;;;;;5123454;27;20205;-70
2023/02/01 03:55:54;;;;;;;10.33;3.10;;;4.70;99.90;;;;;;5120386;27;20218;-70
2023/02/01 03:58:23;;;;;;;14.60;3.83;;;4.70;99.90;;;;;;5108097;28;20318;-69
2023/02/01 04:00:53;;;;;;;11.17;2.90;;;4.70;99.90;;;;;;5119232;28;20194;-70
2023/02/01 04:03:21;;;;;;;8.97;2.90;;;4.70;99.90;;;;;;5126782;28;21093;-70
2023/02/01 04:05:48;;;;;;;13.93;3.30;;;4.80;99.90;;;;;;5126766;27;20241;-70
2023/02/01 04:08:15;;;;;;;12.13;2.57;;;4.80;99.90;;;;;;5127241;28;20220;-70
2023/02/01 04:10:43;;;;;;;13.50;3.30;;;4.80;99.90;;;;;;5126482;28;20209;-70
2023/02/01 04:13:11;;;;;;;9.90;3.13;;;4.80;99.90;;;;;;5127294;28;20304;-70
2023/02/01 04:15:38;;;;;;;17.30;4.13;;;4.80;99.90;;;;;;5122799;28;20790;-70
2023/02/01 04:18:05;;;;;;;12.40;2.93;;;4.80;99.90;;;;;;5108186;27;20554;-70
2023/02/01 04:20:31;;;;;;;7.07;2.70;;;4.80;99.90;;;;;;5110304;28;20281;-70
2023/02/01 04:22:59;;;;;;;13.93;3.30;;;4.90;99.90;;;;;;5127952;28;20285;-70
2023/02/01 04:25:25;;;;;;;10.63;2.90;;;4.90;99.90;;;;;;5127927;28;20213;-70
2023/02/01 04:27:54;;;;;;;12.27;3.10;;;4.90;99.90;;;;;;5128143;28;20206;-70
2023/02/01 04:30:21;;;;;;;7.63;2.47;;;4.90;99.90;;;;;;5128787;27;20667;-70
2023/02/01 04:32:47;;;;;;;8.83;2.67;;;5.00;99.90;;;;;;5131647;27;20288;-70
2023/02/01 04:35:14;;;;;;;13.50;3.03;;;5.00;99.90;;;;;;5132068;27;20288;-70
2023/02/01 04:37:41;;;;;;;12.17;3.20;;;5.00;99.90;;;;;;5131358;27;20776;-72
2023/02/01 04:40:09;;;;;;;12.97;2.70;;;5.00;99.90;;;;;;5131771;27;20762;-70
2023/02/01 04:42:36;;;;;;;14.00;2.90;;;5.10;99.90;;;;;;5131467;27;20245;-70
2023/02/01 04:45:06;;;;;;;11.53;3.23;;;5.10;99.90;;;;;;5131309;27;20209;-70
2023/02/01 04:47:33;;;;;;;14.40;3.13;;;5.10;99.90;;;;;;5146108;27;20990;-70
2023/02/01 04:50:01;;;;;;;10.33;2.83;;;5.10;99.90;;;;;;5113020;27;20206;-70
2023/02/01 04:52:28;;;;;;;14.97;3.27;;;5.10;99.90;;;;;;5110911;28;20225;-70
2023/02/01 04:54:57;;;;;;;16.00;3.00;;;5.10;99.90;;;;;;5111166;28;20245;-70
2023/02/01 04:57:24;;;;;;;12.57;3.43;;;5.10;99.90;;;;;;5129163;27;20232;-70
2023/02/01 04:59:51;;;;;;;7.40;2.60;;;5.20;99.90;;;;;;5131320;27;20289;-70
2023/02/01 05:02:19;;;;;;;9.03;2.70;;;5.10;99.90;;;;;;5131171;27;20248;-70
2023/02/01 05:04:46;;;;;;;13.23;3.17;;;5.20;99.90;;;;;;5131326;27;20293;-70
2023/02/01 05:07:13;;;;;;;6.93;2.77;;;5.20;99.90;;;;;;5131238;27;20300;-70
2023/02/01 05:09:40;;;;;;;13.67;3.67;;;5.20;99.90;;;;;;5131134;27;20634;-70
2023/02/01 05:14:51;;;;;;;11.43;3.03;;;5.20;99.90;;;;;;5119105;27;20216;-70
2023/02/01 05:17:20;;;;;;;8.93;3.00;;;5.20;99.90;;;;;;5130759;27;20324;-70
2023/02/01 05:19:47;;;;;;;9.43;2.97;;;5.20;99.90;;;;;;5114667;27;20301;-70
2023/02/01 05:22:14;;;;;;;11.53;2.70;;;5.20;99.90;;;;;;5128136;27;20255;-70
2023/02/01 05:24:40;;;;;;;11.33;2.93;;;5.20;99.90;;;;;;5130931;27;20256;-70
2023/02/01 05:27:07;;;;;;;13.33;2.70;;;5.20;99.90;;;;;;5130784;27;20244;-71
2023/02/01 05:29:34;;;;;;;8.40;3.00;;;5.20;99.90;;;;;;5130684;27;20248;-70
2023/02/01 05:32:01;;;;;;;14.13;3.00;;;5.30;99.90;;;;;;5130750;27;21138;-70
2023/02/01 05:34:29;;;;;;;7.77;2.87;;;5.30;99.90;;;;;;5130562;27;20382;-70
2023/02/01 05:36:56;;;;;;;11.07;3.13;;;5.20;99.90;;;;;;5130418;27;20308;-70
2023/02/01 05:39:23;;;;;;;12.27;2.90;;;5.20;99.90;;;;;;5130479;27;20285;-70
2023/02/01 05:41:50;;;;;;;9.23;3.20;;;5.20;99.90;;;;;;5130703;27;20300;-70
2023/02/01 05:44:17;;;;;;;12.07;3.60;;;5.20;99.90;;;;;;5130437;27;20709;-70
2023/02/01 05:46:44;;;;;;;8.43;2.80;;;5.20;99.90;;;;;;5138093;27;20214;-70
2023/02/01 05:49:11;;;;;;;13.13;3.20;;;5.30;99.90;;;;;;5151076;27;20236;-70
2023/02/01 05:51:39;;;;;;;7.50;2.53;;;5.30;99.90;;;;;;5151122;27;20295;-70
2023/02/01 05:54:06;;;;;;;12.20;3.13;;;5.30;99.90;;;;;;5150955;27;20299;-70
2023/02/01 05:56:33;;;;;;;10.13;3.20;;;5.30;99.90;;;;;;5138875;27;20257;-70
2023/02/01 05:59:00;;;;;;;8.60;2.90;;;5.30;99.90;;;;;;5114668;27;20280;-70
2023/02/01 06:01:26;;;;;;;9.03;2.67;;;5.30;99.90;;;;;;5109527;28;20297;-70
2023/02/01 06:03:53;;;;;;;8.20;2.97;;;5.30;99.90;;;;;;5109574;28;20229;-70
2023/02/01 06:06:20;;;;;;;10.10;2.70;;;5.20;99.90;;;;;;5109689;28;20208;-70
2023/02/01 06:08:48;;;;;;;7.97;2.60;;;5.20;99.90;;;;;;5115197;27;20287;-70
2023/02/01 06:11:15;;;;;;;10.73;3.10;;;5.20;99.90;;;;;;5119536;27;20256;-70
2023/02/01 06:13:42;;;;;;;13.00;3.10;;;5.20;99.90;;;;;;5129671;27;20240;-70
2023/02/01 06:16:10;;;;;;;8.20;2.93;;;5.10;99.90;;;;;;5132565;27;20215;-70
2023/02/01 06:18:37;;;;;;;10.07;2.83;;;5.10;99.90;;;;;;5150344;27;20284;-70
2023/02/01 06:21:04;;;;;;;12.47;3.10;;;5.10;99.90;;;;;;5142422;27;20224;-70
2023/02/01 06:23:31;;;;;;;12.00;2.73;;;5.10;99.90;;;;;;5111435;27;20769;-70
2023/02/01 06:26:05;;;;;;;10.53;2.50;;;5.10;99.90;;;;;;5117605;27;20249;-70
2023/02/01 06:28:33;;;;;;;12.47;2.97;;;5.10;99.90;;;;;;5129219;27;20238;-70
2023/02/01 06:31:06;;;;;;;10.27;2.73;;;5.10;99.90;;;;;;5129321;27;20306;-70
2023/02/01 06:33:33;;;;;;;12.53;3.10;;;5.10;99.90;;;;;;5128845;27;20197;-70
2023/02/01 06:36:01;;;;;;;13.23;2.90;;;5.10;99.90;;;;;;5129277;27;20204;-70
2023/02/01 06:38:28;;;;;;;9.33;2.70;;;5.10;99.90;;;;;;5129407;27;20216;-70
2023/02/01 06:40:56;;;;;;;12.60;3.27;;;5.10;99.90;;;;;;5122417;27;20279;-70
2023/02/01 06:43:26;;;;;;;9.03;3.07;;;5.10;99.90;;;;;;5109296;28;20255;-70
2023/02/01 06:45:53;;;;;;;9.73;3.10;;;5.10;99.90;;;;;;5109998;27;20209;-70
2023/02/01 06:48:20;;;;;;;8.50;2.50;;;5.00;99.90;;;;;;5149519;27;20323;-70
2023/02/01 06:50:47;;;;;;;11.90;3.10;;;5.10;99.90;;;;;;5150049;27;20208;-70
2023/02/01 06:53:14;;;;;;;7.90;2.90;;;5.10;99.90;;;;;;5149482;27;20295;-70
2023/02/01 06:55:41;;;;;;;9.23;2.80;;;5.10;99.90;;;;;;5145099;27;20284;-70
2023/02/01 06:58:08;;;;;;;11.13;3.30;;;5.10;99.90;;;;;;5128876;27;20344;-70
2023/02/01 07:00:36;;;;;;;9.13;2.47;;;5.10;99.90;;;;;;5129183;27;20216;-70
2023/02/01 07:03:03;;;;;;;10.87;3.27;;;5.10;99.90;;;;;;5128858;27;20730;-70
2023/02/01 07:05:30;;;;;;;11.93;2.90;;;5.10;99.90;;;;;;5129183;27;20285;-70
2023/02/01 07:07:57;;;;;;;8.33;2.83;;;5.10;99.90;;;;;;5115238;27;20332;-70
2023/02/01 07:10:24;;;;;;;13.03;2.83;;;5.10;99.90;;;;;;5108730;28;20823;-70
2023/02/01 07:12:51;;;;;;;13.03;3.13;;;5.10;99.90;;;;;;5108329;28;20297;-70
2023/02/01 07:15:18;;;;;;;9.07;2.83;;;5.10;99.90;;;;;;5108702;28;20293;-70
2023/02/01 07:17:47;;;;;;;8.00;2.43;;;5.10;99.90;;;;;;5129118;27;20653;-70
2023/02/01 07:20:14;;;;;;;15.17;3.30;;;5.00;99.90;;;;;;5128975;27;20232;-70
2023/02/01 07:22:41;;;;;;;7.20;2.83;;;5.00;99.90;;;;;;5128607;27;20233;-70
2023/02/01 07:25:08;;;;;;;9.37;2.47;;;5.00;99.90;;;;;;5128157;27;20228;-70
2023/02/01 07:27:35;;;;;;;5.80;3.17;;;5.00;99.90;;;;;;5128257;27;20613;-71
2023/02/01 07:30:02;;;;;;;5.83;2.30;;;5.00;99.90;;;;;;5128862;27;20646;-70
2023/02/01 07:32:30;;;;;;;9.70;2.77;;;5.10;99.90;;;;;;5128230;27;20304;-70
2023/02/01 07:34:58;;;;;;;12.50;3.83;;;5.00;99.90;;;;;;5128778;27;20296;-70
2023/02/01 07:37:25;;;;;;;5.03;2.50;;;5.00;99.90;;;;;;5127949;27;20782;-70
2023/02/01 07:39:52;;;;;;;11.40;2.60;;;4.90;99.90;;;;;;5128641;27;20560;-70
2023/02/01 07:42:19;;;;;;;8.23;2.40;;;4.90;99.90;;;;;;5128545;27;20637;-70
2023/02/01 07:44:46;;;;;;;11.67;2.87;;;4.80;99.90;;;;;;5128048;27;20644;-70
2023/02/01 07:47:13;;;;;;;5.60;2.50;;;4.60;99.90;;;;;;5128092;27;20265;-70
2023/02/01 07:49:40;;;;;;;14.43;2.60;;;4.60;99.90;;;;;;5112684;27;20332;-70
2023/02/01 07:52:11;;;;;;;8.77;2.90;;;4.60;99.90;;;;;;5108067;28;20198;-70
2023/02/01 07:54:37;;;;;;;6.30;2.63;;;4.40;99.90;;;;;;5107422;28;20194;-70
2023/02/01 07:57:04;;;;;;;7.40;2.70;;;4.40;99.90;;;;;;5107319;28;20649;-70
2023/02/01 07:59:31;;;;;;;8.83;2.87;;;4.30;99.90;;;;;;5107052;28;20284;-70
2023/02/01 08:01:57;;;;;;;13.57;3.90;;;4.30;99.90;;;;;;5113861;27;20237;-70
2023/02/01 08:04:24;;;;;;;9.33;3.00;;;4.20;99.90;;;;;;5107182;28;20249;-70
2023/02/01 08:06:51;;;;;;;9.80;3.23;;;4.20;99.90;;;;;;5111508;28;20282;-70
2023/02/01 08:09:19;;;;;;;13.20;3.03;;;4.10;99.90;;;;;;5111754;28;20292;-70
2023/02/01 08:11:46;;;;;;;11.43;3.30;;;4.10;99.90;;;;;;5111824;28;20226;-70
2023/02/01 08:14:13;;;;;;;10.47;3.77;;;4.10;99.90;;;;;;5125274;27;20202;-70
2023/02/01 08:16:40;;;;;;;7.37;3.07;;;4.10;99.90;;;;;;5139353;27;20204;-70
2023/02/01 08:19:07;;;;;;;7.43;3.20;;;4.10;99.90;;;;;;5138777;27;20686;-70
2023/02/01 08:21:37;;;;;;;8.83;2.67;;;4.10;99.90;;;;;;5132201;27;20201;-70
2023/02/01 08:24:09;;;;;;;8.93;2.97;;;4.10;99.90;;;;;;5132108;27;20201;-70
2023/02/01 08:26:38;;;;;;;6.43;2.60;;;4.10;99.90;;;;;;5131805;27;20663;-70
2023/02/01 08:29:06;;;;;;;8.30;3.20;;;4.10;99.90;;;;;;5131723;27;20254;-70
2023/02/01 08:31:33;;;;;;;6.77;3.00;;;4.10;99.90;;;;;;5131643;27;20210;-70
2023/02/01 08:34:03;;;;;;;7.50;2.90;;;4.10;99.90;;;;;;5131346;27;20201;-70
2023/02/01 08:36:31;;;;;;;7.67;2.67;;;4.10;99.90;;;;;;5131520;27;20694;-70
2023/02/01 08:38:58;;;;;;;7.97;2.93;;;4.10;99.90;;;;;;5131429;27;20780;-70
2023/02/01 08:41:27;;;;;;;5.73;2.40;;;4.10;99.90;;;;;;5131620;27;20351;-70
2023/02/01 08:43:56;;;;;;;5.37;2.50;;;4.20;99.90;;;;;;5131889;27;20301;-70
2023/02/01 08:46:23;;;;;;;5.20;2.23;;;4.20;99.90;;;;;;5136240;27;20232;-70
2023/02/01 08:48:51;;;;;;;3.80;2.33;;;4.20;99.90;;;;;;5152388;27;20223;-70
2023/02/01 08:51:20;;;;;;;3.83;2.10;;;4.10;99.90;;;;;;5152436;27;20243;-70
2023/02/01 08:53:47;;;;;;;2.07;1.80;;;4.10;99.90;;;;;;5152193;27;20299;-70
2023/02/01 08:56:16;;;;;;;4.83;1.77;;;4.10;99.90;;;;;;5143094;27;20258;-70
2023/02/01 08:58:44;;;;;;;4.10;1.80;;;4.10;99.90;;;;;;5130316;27;20331;-70
2023/02/01 09:01:16;;;;;;;3.10;1.80;;;4.10;99.90;;;;;;5130326;27;20216;-70
2023/02/01 09:03:43;;;;;;;3.67;1.63;;;4.10;99.90;;;;;;5130201;28;20288;-70
2023/02/01 09:06:12;;;;;;;2.43;1.67;;;4.10;99.90;;;;;;5130389;27;20233;-70
2023/02/01 09:08:40;;;;;;;2.77;1.30;;;4.20;99.90;;;;;;5130090;28;20627;-70
2023/02/01 09:11:11;;;;;;;4.20;1.80;;;4.20;99.90;;;;;;5130192;27;20294;-70
2023/02/01 09:13:38;;;;;;;2.90;1.40;;;4.20;99.90;;;;;;5129862;28;20284;-70
2023/02/01 09:16:05;;;;;;;2.10;1.47;;;4.20;99.90;;;;;;5131597;27;20205;-70
2023/02/01 09:18:34;;;;;;;3.40;1.20;;;4.20;99.90;;;;;;5144767;27;20237;-70
2023/02/01 09:21:05;;;;;;;2.23;1.00;;;4.30;99.90;;;;;;5130085;28;20197;-70
2023/02/01 09:23:32;;;;;;;1.50;1.10;;;4.30;99.90;;;;;;5111735;28;20236;-70
2023/02/01 09:26:00;;;;;;;3.50;1.00;;;4.30;99.90;;;;;;5109273;28;20313;-70
2023/02/01 09:28:27;;;;;;;0.80;0.67;;;4.30;99.90;;;;;;5109205;28;20206;-70
2023/02/01 09:30:56;;;;;;;1.80;1.10;;;4.30;99.90;;;;;;5143909;27;20304;-70
2023/02/01 09:33:24;;;;;;;2.37;0.63;;;4.30;99.90;;;;;;5150044;27;20286;-70
2023/02/01 09:35:57;;;;;;;1.13;0.73;;;4.30;99.90;;;;;;5150272;27;20201;-70
2023/02/01 09:38:25;;;;;;;3.57;0.87;;;4.30;99.90;;;;;;5150233;27;20243;-70
2023/02/01 09:40:52;;;;;;;0.90;0.90;;;4.30;99.90;;;;;;5150740;27;20223;-70
2023/02/01 09:43:34;;;;;;;2.77;0.83;;;4.30;99.90;;;;;;5150533;27;20215;-70
2023/02/01 09:46:16;;;;;;;1.17;0.70;;;4.30;99.90;;;;;;5148643;27;20193;-70
2023/02/01 09:48:44;;;;;;;1.83;0.93;;;4.40;99.90;;;;;;5128881;28;20285;-70
2023/02/01 09:51:17;;;;;;;1.63;0.90;;;4.40;99.90;;;;;;5129044;28;20212;-70
2023/02/01 09:53:48;;;;;;;2.73;1.23;;;4.30;99.90;;;;;;5125460;27;20309;-70
2023/02/01 09:56:20;;;;;;;4.50;1.20;;;4.40;99.90;;;;;;5108752;28;20209;-70
2023/02/01 09:58:52;;;;;;;1.47;1.00;;;4.30;99.90;;;;;;5069173;28;1128715;-70
2023/02/01 10:01:22;;;;;;;2.30;1.00;;;4.30;99.90;;;;;;5109501;28;20720;-70
2023/02/01 10:03:50;;;;;;;3.63;1.10;;;4.30;99.90;;;;;;5109567;28;20259;-70
2023/02/01 10:06:31;;;;;;;2.33;1.30;;;4.30;99.90;;;;;;5118959;27;20220;-70
2023/02/01 10:09:14;;;;;;;3.73;1.00;;;4.30;99.90;;;;;;5130215;27;20193;-70
2023/02/01 10:11:55;;;;;;;2.43;1.43;;;4.40;99.90;;;;;;5129815;27;20774;-70
2023/02/01 10:14:46;;;;;;;1.20;0.80;;;4.40;99.90;;;;;;5129924;27;20194;-70
2023/02/01 10:17:23;;;;;;;4.83;1.00;;;4.50;99.90;;;;;;5141600;27;20201;-70
2023/02/01 10:20:00;;;;;;;4.23;1.30;;;4.50;99.90;;;;;;5133699;27;20212;-70
2023/02/01 10:22:40;;;;;;;1.53;0.80;;;4.50;99.90;;;;;;5129650;27;20225;-70
2023/02/01 10:25:18;;;;;;;2.63;0.93;;;4.50;99.90;;;;;;5129392;27;20228;-70
2023/02/01 10:27:46;;;;;;;1.50;1.23;;;4.50;99.90;;;;;;5128792;27;20197;-70
2023/02/01 10:30:20;;;;;;;3.70;1.17;;;4.50;99.90;;;;;;5129542;27;20292;-70
2023/02/01 10:32:50;;;;;;;4.03;1.03;;;4.60;99.90;;;;;;5129341;27;20243;-70
2023/02/01 10:35:19;;;;;;;1.73;1.27;;;4.50;99.90;;;;;;5129655;27;20300;-70
2023/02/01 10:37:48;;;;;;;1.93;1.33;;;4.50;99.90;;;;;;5129146;27;20642;-70
2023/02/01 10:40:21;;;;;;;2.97;1.13;;;4.40;99.90;;;;;;5129205;27;20300;-70
2023/02/01 10:42:48;;;;;;;3.47;1.77;;;4.40;99.90;;;;;;5129281;27;20612;-70
2023/02/01 10:45:20;;;;;;;3.67;1.40;;;4.40;99.90;;;;;;5129164;27;20281;-70
2023/02/01 10:47:48;;;;;;;1.33;0.80;;;4.30;99.90;;;;;;5145652;27;20292;-70
2023/02/01 10:50:26;;;;;;;3.30;1.20;;;4.40;99.90;;;;;;5129619;27;20316;-70
2023/02/01 10:52:59;;;;;;;2.40;1.03;;;4.40;99.90;;;;;;5116169;27;20291;-70
2023/02/01 10:55:41;;;;;;;2.60;0.90;;;4.40;99.90;;;;;;5108365;28;20641;-70
2023/02/01 10:58:16;;;;;;;2.47;1.27;;;4.40;99.90;;;;;;5108334;28;20249;-69
2023/02/01 11:00:46;;;;;;;2.83;1.10;;;4.40;99.90;;;;;;5108185;28;20680;-69
2023/02/01 11:03:36;;;;;;;1.30;0.90;;;4.40;99.90;;;;;;5123425;27;20236;-69
2023/02/01 11:06:09;;;;;;;1.30;1.20;;;4.50;99.90;;;;;;5128906;27;20201;-69
2023/02/01 11:08:46;;;;;;;2.70;1.30;;;4.60;99.90;;;;;;5128879;27;20624;-70
2023/02/01 11:11:13;;;;;;;4.03;1.20;;;4.60;99.90;;;;;;5129224;27;20224;-70
2023/02/01 11:13:41;;;;;;;3.20;1.50;;;4.70;99.90;;;;;;5128825;27;20201;-70
2023/02/01 11:16:13;;;;;;;4.07;1.43;;;4.80;99.90;;;;;;5131798;27;20292;-70
2023/02/01 11:18:40;;;;;;;3.53;1.47;;;4.80;99.90;;;;;;5142398;27;20668;-70
2023/02/01 11:21:09;;;;;;;4.10;1.60;;;4.90;99.90;;;;;;5128916;27;20660;-70
2023/02/01 11:23:41;;;;;;;3.60;1.57;;;5.00;99.90;;;;;;5128797;27;20256;-70
2023/02/01 11:26:13;;;;;;;4.10;1.57;;;5.10;99.90;;;;;;5128620;27;20723;-70
2023/02/01 11:28:44;;;;;;;6.23;1.57;;;5.30;99.90;;;;;;5128615;27;20276;-70
2023/02/01 11:31:14;;;;;;;4.27;1.33;;;5.40;99.90;;;;;;5128526;27;20648;-69
2023/02/01 11:33:48;;;;;;;5.07;1.60;;;5.50;99.90;;;;;;5128288;27;20308;-70
2023/02/01 11:36:19;;;;;;;4.90;1.60;;;5.60;99.90;;;;;;5128441;27;20200;-70
2023/02/01 11:38:51;;;;;;;3.93;1.47;;;5.60;99.90;;;;;;5128537;27;20586;-70
2023/02/01 11:41:25;;;;;;;4.80;2.03;;;5.60;99.90;;;;;;5128433;27;20220;-70
2023/02/01 11:43:55;;;;;;;3.83;1.63;;;5.70;99.90;;;;;;5128668;27;20276;-70
2023/02/01 11:46:30;;;;;;;4.67;1.30;;;5.70;99.90;;;;;;5128433;27;20481;-69
2023/02/01 11:48:57;;;;;;;7.43;1.70;;;5.70;99.90;;;;;;5116893;27;20262;-69
2023/02/01 11:51:40;;;;;;;6.47;1.90;;;5.80;99.90;;;;;;5107386;28;20756;-69
2023/02/01 11:54:18;;;;;;;3.00;1.40;;;5.70;99.90;;;;;;5108140;28;20239;-69
2023/02/01 11:56:56;;;;;;;3.37;1.20;;;5.80;99.90;;;;;;5107398;28;20259;-69
2023/02/01 11:59:40;;;;;;;1.53;1.07;;;5.90;99.90;;;;;;5121934;28;20336;-69
2023/02/01 12:02:31;;;;;;;6.40;1.23;;;6.10;99.90;;;;;;5128275;28;20212;-69
2023/02/01 12:05:24;;;;;;;6.27;1.87;;;6.10;99.90;;;;;;5108070;28;20281;-69
2023/02/01 12:08:14;;;;;;;2.80;1.43;;;6.20;99.90;;;;;;5107507;28;20649;-70
2023/02/01 12:10:55;;;;;;;3.77;1.90;;;6.30;99.90;;;;;;5107535;28;20190;-71
2023/02/01 12:13:36;;;;;;;4.77;1.83;;;6.30;99.90;;;;;;5107664;28;20790;-70
2023/02/01 12:16:13;;;;;;;1.80;1.30;;;6.30;99.90;;;;;;5111750;27;20187;-71
2023/02/01 12:19:22;;;;;;;6.90;2.30;;;6.30;99.90;;;;;;5139786;27;20320;-70
2023/02/01 12:22:15;;;;;;;3.37;1.47;;;6.20;99.90;;;;;;5116856;27;20256;-70
2023/02/01 12:25:02;;;;;;;6.63;1.80;;;6.20;99.90;;;;;;5107469;28;20257;-70
2023/02/01 12:27:44;;;;;;;4.03;1.60;;;6.20;99.90;;;;;;5107642;28;20216;-70
2023/02/01 12:30:40;;;;;;;8.27;2.30;;;6.20;99.90;;;;;;5107632;28;20198;-71
2023/02/01 12:33:17;;;;;;;6.37;1.90;;;6.20;99.90;;;;;;5101241;28;20242;-71
2023/02/01 12:36:01;;;;;;;5.87;1.70;;;6.20;99.90;;;;;;5107097;28;20519;-70
2023/02/01 12:38:45;;;;;;;4.90;1.50;;;6.20;99.90;;;;;;5107104;28;20230;-70
2023/02/01 12:41:42;;;;;;;4.37;1.80;;;6.20;99.90;;;;;;5116364;28;20582;-70
2023/02/01 12:44:18;;;;;;;4.20;1.40;;;6.20;99.90;;;;;;5102100;28;20289;-70
2023/02/01 12:46:50;;;;;;;4.83;1.50;;;6.30;99.90;;;;;;5127575;28;20725;-70
2023/02/01 12:49:25;;;;;;;5.10;1.80;;;6.20;99.90;;;;;;5115596;28;20308;-70
2023/02/01 12:51:55;;;;;;;3.80;1.70;;;6.30;99.90;;;;;;5109353;28;20212;-70
2023/02/01 12:54:28;;;;;;;2.80;1.40;;;6.30;99.90;;;;;;5114743;27;20197;-70
2023/02/01 12:57:01;;;;;;;5.97;1.77;;;6.30;99.90;;;;;;5131571;27;20300;-71
2023/02/01 12:59:32;;;;;;;5.37;2.00;;;6.30;99.90;;;;;;5130845;27;20249;-70
2023/02/01 13:02:12;;;;;;;4.87;1.60;;;6.30;99.90;;;;;;5131722;27;20285;-70
2023/02/01 13:04:45;;;;;;;5.00;1.97;;;6.30;99.90;;;;;;5131261;27;20197;-70
2023/02/01 13:07:19;;;;;;;7.60;1.93;;;6.30;99.90;;;;;;5131833;27;20312;-70
2023/02/01 13:09:52;;;;;;;6.57;1.57;;;6.30;99.90;;;;;;5131747;27;20214;-70
2023/02/01 13:12:25;;;;;;;4.07;1.73;;;6.30;99.90;;;;;;5131534;27;20194;-70
2023/02/01 13:14:57;;;;;;;3.73;1.70;;;6.30;99.90;;;;;;5131560;27;20272;-70
2023/02/01 13:17:28;;;;;;;6.47;1.40;;;6.30;99.90;;;;;;5144728;27;20211;-70
2023/02/01 13:20:00;;;;;;;3.13;1.30;;;6.30;99.90;;;;;;5134464;27;20225;-70
2023/02/01 13:22:31;;;;;;;6.93;1.93;;;6.30;99.90;;;;;;5122131;27;20298;-70
2023/02/01 13:25:00;;;;;;;5.00;1.53;;;6.30;99.90;;;;;;5110870;28;20258;-70
2023/02/01 13:27:30;;;;;;;4.67;1.77;;;6.30;99.90;;;;;;5110451;28;20298;-70
2023/02/01 13:29:59;;;;;;;3.13;1.50;;;6.40;99.90;;;;;;5110834;28;20276;-70
2023/02/01 13:33:06;;;;;;;4.40;1.80;;;6.30;99.90;;;;;;5110064;28;20256;-70
2023/02/01 13:36:01;;;;;;;5.50;1.77;;;6.30;99.90;;;;;;5110299;28;20290;-70